createdAt,value
2018-06-24T03:00:58.553Z,88.00
2018-06-24T03:01:58.775Z,96.00
2018-06-24T03:02:58.900Z,104.00
2018-06-24T03:03:59.066Z,112.00
2018-06-24T03:04:59.215Z,124.00
2018-06-24T03:05:59.402Z,132.00
2018-06-24T03:06:59.553Z,144.00
2018-06-24T03:07:59.813Z,156.00
2018-06-24T03:08:59.921Z,164.00
2018-06-24T03:10:00.116Z,176.00
2018-06-24T03:11:00.284Z,188.00
2018-06-24T03:12:00.490Z,200.00
2018-06-24T03:13:00.620Z,216.00
2018-06-24T03:14:00.783Z,228.00
2018-06-24T03:15:00.960Z,240.00
2018-06-24T03:16:01.123Z,256.00
2018-06-24T03:17:01.298Z,276.00
2018-06-24T03:18:01.466Z,288.00
2018-06-24T03:19:01.600Z,308.00
2018-06-24T03:20:01.830Z,324.00
2018-06-24T03:21:01.928Z,344.00
2018-06-24T03:22:02.107Z,360.00
2018-06-24T03:23:02.320Z,384.00
2018-06-24T03:24:02.436Z,400.00
2018-06-24T03:25:02.586Z,420.00
2018-06-24T03:26:02.766Z,440.00
2018-06-24T03:27:02.955Z,456.00
2018-06-24T03:28:03.134Z,472.00
2018-06-24T03:29:03.288Z,484.00
2018-06-24T03:30:03.464Z,500.00
2018-06-24T03:31:03.680Z,516.00
2018-06-24T03:32:03.815Z,536.00
2018-06-24T03:33:03.963Z,560.00
2018-06-24T03:34:04.112Z,584.00
2018-06-24T03:35:04.316Z,604.00
2018-06-24T03:36:04.481Z,620.00
2018-06-24T03:37:04.589Z,648.00
2018-06-24T03:38:04.828Z,680.00
2018-06-24T03:39:04.914Z,712.00
2018-06-24T03:40:05.124Z,736.00
2018-06-24T03:41:05.289Z,768.00
2018-06-24T03:42:05.477Z,796.00
2018-06-24T03:43:05.569Z,832.00
2018-06-24T03:44:05.759Z,864.00
2018-06-24T03:45:05.996Z,896.00
2018-06-24T03:46:06.100Z,932.00
2018-06-24T03:47:06.294Z,968.00
2018-06-24T03:48:06.433Z,1008.00
2018-06-24T03:49:06.644Z,1044.00
2018-06-24T03:50:06.821Z,1072.00
2018-06-24T03:51:06.949Z,1100.00
2018-06-24T03:52:07.153Z,1120.00
2018-06-24T03:53:07.306Z,1144.00
2018-06-24T03:54:07.464Z,1168.00
2018-06-24T03:55:07.619Z,1196.00
2018-06-24T03:56:07.789Z,1220.00
2018-06-24T03:57:08.027Z,1244.00
2018-06-24T03:58:08.177Z,1268.00
2018-06-24T03:59:08.310Z,1288.00
2018-06-24T04:00:08.468Z,1296.00
2018-06-24T04:01:08.645Z,1304.00
2018-06-24T04:02:08.842Z,1320.00
2018-06-24T04:03:08.962Z,1328.00
2018-06-24T04:04:09.097Z,1336.00
2018-06-24T04:05:09.296Z,1340.00
2018-06-24T04:06:09.482Z,1344.00
2018-06-24T04:07:09.616Z,1344.00
2018-06-24T04:08:09.745Z,1348.00
2018-06-24T04:09:09.988Z,1356.00
2018-06-24T04:10:10.161Z,1368.00
2018-06-24T04:11:10.273Z,1384.00
2018-06-24T04:12:10.491Z,1408.00
2018-06-24T04:13:10.656Z,1436.00
2018-06-24T04:14:10.785Z,1464.00
2018-06-24T04:15:10.992Z,1476.00
2018-06-24T04:16:11.079Z,1484.00
2018-06-24T04:17:11.316Z,1492.00
2018-06-24T04:18:11.407Z,1508.00
2018-06-24T04:19:11.601Z,1536.00
2018-06-24T04:20:11.758Z,1568.00
2018-06-24T04:21:11.954Z,1592.00
2018-06-24T04:22:12.072Z,1612.00
2018-06-24T04:23:12.283Z,1628.00
2018-06-24T04:24:12.435Z,1640.00
2018-06-24T04:25:12.689Z,1660.00
2018-06-24T04:26:12.813Z,1688.00
2018-06-24T04:27:12.938Z,1724.00
2018-06-24T04:28:13.136Z,1760.00
2018-06-24T04:29:13.274Z,1772.00
2018-06-24T04:30:13.469Z,1792.00
2018-06-24T04:31:13.592Z,1788.00
2018-06-24T04:32:13.766Z,1780.00
2018-06-24T04:33:13.976Z,1800.00
2018-06-24T04:34:14.163Z,1844.00
2018-06-24T04:35:14.298Z,1900.00
2018-06-24T04:36:14.504Z,1948.00
2018-06-24T04:37:14.661Z,1976.00
2018-06-24T04:38:14.849Z,2000.00
2018-06-24T04:39:15.016Z,2048.00
2018-06-24T04:40:15.165Z,2092.00
2018-06-24T04:41:15.285Z,2128.00
2018-06-24T04:42:15.451Z,2132.00
2018-06-24T04:43:15.590Z,2144.00
2018-06-24T04:44:15.792Z,2180.00
2018-06-24T04:45:15.924Z,2268.00
2018-06-24T04:46:16.128Z,2360.00
2018-06-24T04:47:16.298Z,2428.00
2018-06-24T04:48:16.480Z,2480.00
2018-06-24T04:49:16.621Z,2536.00
2018-06-24T04:50:16.756Z,2596.00
2018-06-24T04:51:16.977Z,2672.00
2018-06-24T04:52:17.153Z,2732.00
2018-06-24T04:53:17.300Z,2792.00
2018-06-24T04:54:17.433Z,2868.00
2018-06-24T04:55:17.623Z,2940.00
2018-06-24T04:56:17.798Z,3016.00
2018-06-24T04:57:18.024Z,3084.00
2018-06-24T04:58:18.161Z,3132.00
2018-06-24T04:59:18.265Z,3176.00
2018-06-24T05:00:18.450Z,3208.00
2018-06-24T05:01:18.648Z,3208.00
2018-06-24T05:02:18.853Z,3180.00
2018-06-24T05:03:18.975Z,3140.00
2018-06-24T05:04:19.141Z,3108.00
2018-06-24T05:05:19.314Z,3120.00
2018-06-24T05:06:19.512Z,3148.00
2018-06-24T05:07:19.666Z,3132.00
2018-06-24T05:08:19.815Z,3112.00
2018-06-24T05:09:19.942Z,3108.00
2018-06-24T05:10:20.099Z,3156.00
2018-06-24T05:11:20.275Z,3284.00
2018-06-24T05:12:20.461Z,3468.00
2018-06-24T05:13:20.638Z,3556.00
2018-06-24T05:14:20.781Z,3672.00
2018-06-24T05:15:20.979Z,3784.00
2018-06-24T05:16:21.109Z,3912.00
2018-06-24T05:17:21.367Z,4036.00
2018-06-24T05:18:21.472Z,4176.00
2018-06-24T05:19:21.673Z,4308.00
2018-06-24T05:20:21.839Z,4480.00
2018-06-24T05:21:21.997Z,4784.00
2018-06-24T05:22:22.134Z,5192.00
2018-06-24T05:23:22.379Z,5288.00
2018-06-24T05:24:22.528Z,5336.00
2018-06-24T05:25:22.699Z,5432.00
2018-06-24T05:26:22.870Z,5520.00
2018-06-24T05:27:22.962Z,5504.00
2018-06-24T05:28:23.158Z,5560.00
2018-06-24T05:29:23.332Z,5548.00
2018-06-24T05:30:23.449Z,5500.00
2018-06-24T05:31:23.666Z,5388.00
2018-06-24T05:32:23.804Z,5328.00
2018-06-24T05:33:24.038Z,5268.00
2018-06-24T05:34:24.124Z,5300.00
2018-06-24T05:35:24.321Z,5388.00
2018-06-24T05:36:24.471Z,5408.00
2018-06-24T05:37:24.646Z,5456.00
2018-06-24T05:38:24.855Z,5524.00
2018-06-24T05:39:25.085Z,5604.00
2018-06-24T05:40:25.205Z,5872.00
2018-06-24T05:41:25.466Z,5904.00
2018-06-24T05:42:25.582Z,5968.00
2018-06-24T05:43:25.687Z,5944.00
2018-06-24T05:44:25.927Z,5868.00
2018-06-24T05:45:26.056Z,5800.00
2018-06-24T05:46:26.355Z,5944.00
2018-06-24T05:47:26.427Z,5732.00
2018-06-24T05:48:26.638Z,5804.00
2018-06-24T05:49:26.774Z,6020.00
2018-06-24T05:50:26.970Z,5920.00
2018-06-24T05:51:27.099Z,5872.00
2018-06-24T05:52:27.230Z,5656.00
2018-06-24T05:53:27.434Z,5256.00
2018-06-24T05:54:27.557Z,5184.00
2018-06-24T05:55:27.755Z,5552.00
2018-06-24T05:56:27.962Z,5844.00
2018-06-24T05:57:28.085Z,5976.00
2018-06-24T05:58:28.291Z,6256.00
2018-06-24T05:59:28.459Z,6008.00
2018-06-24T06:00:28.599Z,5368.00
2018-06-24T06:01:28.712Z,5240.00
2018-06-24T06:02:28.910Z,5200.00
2018-06-24T06:03:29.091Z,5220.00
2018-06-24T06:04:29.266Z,5340.00
2018-06-24T06:05:29.369Z,5688.00
2018-06-24T06:06:29.569Z,5920.00
2018-06-24T06:07:29.752Z,6052.00
2018-06-24T06:08:29.900Z,6332.00
2018-06-24T06:09:30.053Z,6632.00
2018-06-24T06:10:30.319Z,6968.00
2018-06-24T06:11:30.387Z,7224.00
2018-06-24T06:12:30.567Z,7372.00
2018-06-24T06:13:30.739Z,7412.00
2018-06-24T06:14:30.884Z,7396.00
2018-06-24T06:15:31.077Z,7288.00
2018-06-24T06:16:31.269Z,7096.00
2018-06-24T06:17:31.408Z,6928.00
2018-06-24T06:18:31.582Z,7104.00
2018-06-24T06:19:31.767Z,6992.00
2018-06-24T06:20:31.980Z,7080.00
2018-06-24T06:21:32.098Z,7188.00
2018-06-24T06:22:32.213Z,7136.00
2018-06-24T06:23:32.430Z,7324.00
2018-06-24T06:24:32.553Z,7520.00
2018-06-24T06:25:32.775Z,7584.00
2018-06-24T06:26:32.895Z,7656.00
2018-06-24T06:27:33.068Z,7764.00
2018-06-24T06:28:33.277Z,7868.00
2018-06-24T06:29:33.431Z,7936.00
2018-06-24T06:30:33.582Z,8028.00
2018-06-24T06:31:33.791Z,8272.00
2018-06-24T06:32:33.993Z,8656.00
2018-06-24T06:33:34.116Z,8928.00
2018-06-24T06:34:34.276Z,9224.00
2018-06-24T06:35:34.385Z,9772.00
2018-06-24T06:36:34.578Z,10380.00
2018-06-24T06:37:34.767Z,10772.00
2018-06-24T06:38:34.943Z,11168.00
2018-06-24T06:39:35.095Z,11164.00
2018-06-24T06:40:35.278Z,11364.00
2018-06-24T06:41:35.424Z,11540.00
2018-06-24T06:42:35.566Z,12040.00
2018-06-24T06:43:35.814Z,12076.00
2018-06-24T06:44:35.989Z,12028.00
2018-06-24T06:45:36.372Z,12156.00
2018-06-24T06:46:36.311Z,11932.00
2018-06-24T06:47:36.507Z,10468.00
2018-06-24T06:48:36.697Z,9068.00
2018-06-24T06:49:36.778Z,8348.00
2018-06-24T06:50:36.998Z,8116.00
2018-06-24T06:51:37.122Z,8228.00
2018-06-24T06:52:37.386Z,8932.00
2018-06-24T06:53:37.504Z,9944.00
2018-06-24T06:54:37.717Z,10340.00
2018-06-24T06:55:37.832Z,10000.00
2018-06-24T06:56:38.059Z,9392.00
2018-06-24T06:57:38.160Z,8684.00
2018-06-24T06:58:38.335Z,7752.00
2018-06-24T06:59:38.540Z,7012.00
2018-06-24T07:00:38.660Z,7184.00
2018-06-24T07:01:38.892Z,7604.00
2018-06-24T07:02:39.054Z,7696.00
2018-06-24T07:03:39.179Z,7696.00
2018-06-24T07:04:39.388Z,7588.00
2018-06-24T07:05:39.630Z,7608.00
2018-06-24T07:06:39.683Z,7956.00
2018-06-24T07:07:39.883Z,8368.00
2018-06-24T07:08:40.007Z,8564.00
2018-06-24T07:09:40.177Z,8288.00
2018-06-24T07:10:40.389Z,8016.00
2018-06-24T07:11:40.544Z,8052.00
2018-06-24T07:12:40.736Z,8284.00
2018-06-24T07:13:40.880Z,8516.00
2018-06-24T07:14:41.072Z,8548.00
2018-06-24T07:15:41.173Z,8616.00
2018-06-24T07:16:41.393Z,8636.00
2018-06-24T07:17:41.558Z,8312.00
2018-06-24T07:18:41.726Z,7924.00
2018-06-24T07:19:41.875Z,7124.00
2018-06-24T07:20:42.024Z,6372.00
2018-06-24T07:21:42.260Z,5636.00
2018-06-24T07:22:42.356Z,5108.00
2018-06-24T07:23:42.555Z,4940.00
2018-06-24T07:24:42.731Z,5116.00
2018-06-24T07:25:42.911Z,5500.00
2018-06-24T07:26:43.078Z,6060.00
2018-06-24T07:27:43.280Z,6700.00
2018-06-24T07:28:43.444Z,7464.00
2018-06-24T07:29:43.593Z,8020.00
2018-06-24T07:30:43.759Z,8300.00
2018-06-24T07:31:43.946Z,8792.00
2018-06-24T07:32:44.123Z,9664.00
2018-06-24T07:33:44.375Z,10764.00
2018-06-24T07:34:44.475Z,11824.00
2018-06-24T07:35:44.709Z,12660.00
2018-06-24T07:36:44.834Z,12924.00
2018-06-24T07:37:45.040Z,13084.00
2018-06-24T07:38:45.147Z,13560.00
2018-06-24T07:39:45.327Z,14016.00
2018-06-24T07:40:45.522Z,13856.00
2018-06-24T07:41:45.708Z,13404.00
2018-06-24T07:42:45.884Z,12552.00
2018-06-24T07:43:46.003Z,12180.00
2018-06-24T07:44:46.184Z,12192.00
2018-06-24T07:45:46.306Z,12100.00
2018-06-24T07:46:46.646Z,12088.00
2018-06-24T07:47:46.719Z,12216.00
2018-06-24T07:48:46.874Z,12120.00
2018-06-24T07:49:47.062Z,11740.00
2018-06-24T07:50:47.185Z,11456.00
2018-06-24T07:51:47.385Z,11172.00
2018-06-24T07:52:47.569Z,11308.00
2018-06-24T07:53:47.793Z,11376.00
2018-06-24T07:54:47.885Z,11136.00
2018-06-24T07:55:48.112Z,10540.00
2018-06-24T07:56:48.244Z,9940.00
2018-06-24T07:57:48.414Z,9752.00
2018-06-24T07:58:48.661Z,9816.00
2018-06-24T07:59:48.757Z,10212.00
2018-06-24T08:00:49.015Z,10672.00
2018-06-24T08:01:49.171Z,11180.00
2018-06-24T08:02:49.380Z,11544.00
2018-06-24T08:03:49.567Z,11716.00
2018-06-24T08:04:49.644Z,11716.00
2018-06-24T08:05:49.882Z,11952.00
2018-06-24T08:06:49.983Z,12540.00
2018-06-24T08:07:50.132Z,13048.00
2018-06-24T08:08:50.340Z,13636.00
2018-06-24T08:09:50.477Z,14228.00
2018-06-24T08:10:50.651Z,14584.00
2018-06-24T08:11:50.845Z,14892.00
2018-06-24T08:12:50.963Z,15392.00
2018-06-24T08:13:51.123Z,15392.00
2018-06-24T08:14:51.389Z,14952.00
2018-06-24T08:15:51.497Z,14524.00
2018-06-24T08:16:51.731Z,14068.00
2018-06-24T08:17:51.828Z,13892.00
2018-06-24T08:18:52.140Z,14024.00
2018-06-24T08:19:52.173Z,14328.00
2018-06-24T08:20:52.383Z,14728.00
2018-06-24T08:21:52.583Z,15488.00
2018-06-24T08:22:52.770Z,16448.00
2018-06-24T08:23:52.951Z,17152.00
2018-06-24T08:24:53.057Z,17728.00
2018-06-24T08:25:53.193Z,17344.00
2018-06-24T08:26:53.424Z,16832.00
2018-06-24T08:27:53.602Z,16288.00
2018-06-24T08:28:53.722Z,15840.00
2018-06-24T08:29:53.934Z,15648.00
2018-06-24T08:30:54.104Z,15264.00
2018-06-24T08:31:54.603Z,14868.00
2018-06-24T08:32:54.484Z,14808.00
2018-06-24T08:33:54.670Z,15168.00
2018-06-24T08:34:54.842Z,15616.00
2018-06-24T08:35:54.984Z,16320.00
2018-06-24T08:36:55.223Z,16768.00
2018-06-24T08:37:55.347Z,16864.00
2018-06-24T08:38:55.558Z,16704.00
2018-06-24T08:39:55.693Z,16544.00
2018-06-24T08:40:55.848Z,16672.00
2018-06-24T08:41:56.047Z,17056.00
2018-06-24T08:42:56.254Z,17440.00
2018-06-24T08:43:56.383Z,17440.00
2018-06-24T08:44:56.596Z,17216.00
2018-06-24T08:45:56.756Z,16896.00
2018-06-24T08:46:57.002Z,16672.00
2018-06-24T08:47:57.155Z,17120.00
2018-06-24T08:48:57.317Z,16832.00
2018-06-24T08:49:57.401Z,16992.00
2018-06-24T08:50:57.665Z,17472.00
2018-06-24T08:51:57.807Z,17888.00
2018-06-24T08:52:57.925Z,18432.00
2018-06-24T08:53:58.109Z,18752.00
2018-06-24T08:54:58.339Z,18528.00
2018-06-24T08:55:58.490Z,18496.00
2018-06-24T08:56:58.710Z,18848.00
2018-06-24T08:57:58.840Z,18656.00
2018-06-24T08:58:59.045Z,18048.00
2018-06-24T08:59:59.144Z,18336.00
2018-06-24T09:00:59.391Z,18624.00
2018-06-24T09:01:59.564Z,19392.00
2018-06-24T09:02:59.765Z,19200.00
2018-06-24T09:03:59.851Z,19424.00
2018-06-24T09:05:00.102Z,19840.00
2018-06-24T09:06:00.343Z,19776.00
2018-06-24T09:07:00.451Z,18976.00
2018-06-24T09:08:00.605Z,16992.00
2018-06-24T09:09:00.707Z,14688.00
2018-06-24T09:10:00.990Z,13056.00
2018-06-24T09:11:01.103Z,12640.00
2018-06-24T09:12:01.296Z,13108.00
2018-06-24T09:13:01.519Z,13620.00
2018-06-24T09:14:01.669Z,14784.00
2018-06-24T09:15:01.861Z,15680.00
2018-06-24T09:16:02.079Z,16928.00
2018-06-24T09:17:02.142Z,17888.00
2018-06-24T09:18:02.396Z,18912.00
2018-06-24T09:19:02.498Z,19264.00
2018-06-24T09:20:02.687Z,19456.00
2018-06-24T09:21:02.971Z,19168.00
2018-06-24T09:22:03.174Z,17888.00
2018-06-24T09:23:03.241Z,16096.00
2018-06-24T09:24:03.419Z,14260.00
2018-06-24T09:25:03.653Z,13148.00
2018-06-24T09:26:03.840Z,12508.00
2018-06-24T09:27:03.980Z,12468.00
2018-06-24T09:28:04.143Z,13148.00
2018-06-24T09:29:04.396Z,14300.00
2018-06-24T09:30:04.553Z,15840.00
2018-06-24T09:31:04.627Z,17280.00
2018-06-24T09:32:04.821Z,18816.00
2018-06-24T09:33:05.068Z,19840.00
2018-06-24T09:34:05.258Z,20000.00
2018-06-24T09:35:05.451Z,19744.00
2018-06-24T09:36:05.572Z,18848.00
2018-06-24T09:37:05.794Z,18112.00
2018-06-24T09:38:05.979Z,17952.00
2018-06-24T09:39:06.127Z,18752.00
2018-06-24T09:40:06.336Z,20288.00
2018-06-24T09:41:06.644Z,22240.00
2018-06-24T09:42:06.753Z,23616.00
2018-06-24T09:43:06.972Z,24416.00
2018-06-24T09:44:07.144Z,24064.00
2018-06-24T09:45:07.336Z,26144.00
2018-06-24T09:46:07.484Z,25536.00
2018-06-24T09:47:07.669Z,25216.00
2018-06-24T09:48:07.813Z,24832.00
2018-06-24T09:49:08.018Z,24096.00
2018-06-24T09:50:08.291Z,24224.00
2018-06-24T09:51:08.456Z,24704.00
2018-06-24T09:52:08.614Z,22912.00
2018-06-24T09:53:08.736Z,21824.00
2018-06-24T09:54:08.905Z,21920.00
2018-06-24T09:55:09.144Z,21856.00
2018-06-24T09:56:09.254Z,21088.00
2018-06-24T09:57:09.407Z,20800.00
2018-06-24T09:58:09.583Z,20544.00
2018-06-24T09:59:09.776Z,20288.00
2018-06-24T10:00:09.988Z,19808.00
2018-06-24T10:01:10.206Z,19424.00
2018-06-24T10:02:10.354Z,19264.00
2018-06-24T10:03:10.469Z,19392.00
2018-06-24T10:04:10.624Z,19904.00
2018-06-24T10:05:10.828Z,20384.00
2018-06-24T10:06:10.961Z,20256.00
2018-06-24T10:07:11.114Z,22240.00
2018-06-24T10:08:11.325Z,21312.00
2018-06-24T10:09:11.574Z,19168.00
2018-06-24T10:10:11.682Z,18784.00
2018-06-24T10:11:11.920Z,18976.00
2018-06-24T10:12:12.058Z,19168.00
2018-06-24T10:13:12.282Z,18176.00
2018-06-24T10:14:12.400Z,17376.00
2018-06-24T10:15:12.601Z,16960.00
2018-06-24T10:16:12.806Z,17280.00
2018-06-24T10:17:12.982Z,18464.00
2018-06-24T10:18:13.220Z,19488.00
2018-06-24T10:19:13.344Z,20256.00
2018-06-24T10:20:13.512Z,20000.00
2018-06-24T10:21:13.799Z,19488.00
2018-06-24T10:22:14.024Z,19584.00
2018-06-24T10:23:14.137Z,19104.00
2018-06-24T10:24:14.398Z,21504.00
2018-06-24T10:25:14.537Z,19232.00
2018-06-24T10:26:14.716Z,18464.00
2018-06-24T10:27:15.011Z,19040.00
2018-06-24T10:28:15.106Z,19968.00
2018-06-24T10:29:15.326Z,21120.00
2018-06-24T10:30:15.452Z,21408.00
2018-06-24T10:31:15.686Z,42944.00
2018-06-24T10:32:15.846Z,20416.00
2018-06-24T10:33:16.048Z,22848.00
2018-06-24T10:34:16.210Z,21088.00
2018-06-24T10:35:16.384Z,28256.00
2018-06-24T10:36:16.526Z,18336.00
2018-06-24T10:37:16.713Z,18368.00
2018-06-24T10:38:16.940Z,20864.00
2018-06-24T10:39:17.119Z,24320.00
2018-06-24T10:40:17.265Z,20800.00
2018-06-24T10:41:17.585Z,18304.00
2018-06-24T10:42:17.648Z,24128.00
2018-06-24T10:43:17.863Z,24960.00
2018-06-24T10:44:18.017Z,24448.00
2018-06-24T10:45:18.256Z,32960.00
2018-06-24T10:46:18.338Z,39648.00
2018-06-24T10:47:18.608Z,37952.00
2018-06-24T10:48:18.716Z,31904.00
2018-06-24T10:49:18.905Z,32096.00
2018-06-24T10:50:19.086Z,35296.00
2018-06-24T10:51:19.295Z,33376.00
2018-06-24T10:52:19.378Z,34880.00
2018-06-24T10:53:19.587Z,36064.00
2018-06-24T10:54:19.707Z,37440.00
2018-06-24T10:55:19.985Z,35968.00
2018-06-24T10:56:20.014Z,32736.00
2018-06-24T10:57:20.197Z,27456.00
2018-06-24T10:58:20.389Z,26816.00
2018-06-24T10:59:20.554Z,25344.00
2018-06-24T11:00:20.722Z,24224.00
2018-06-24T11:01:20.939Z,25856.00
2018-06-24T11:02:21.215Z,20288.00
2018-06-24T11:03:21.296Z,22496.00
2018-06-24T11:04:21.471Z,23904.00
2018-06-24T11:05:21.701Z,19680.00
2018-06-24T11:06:21.741Z,18848.00
2018-06-24T11:07:21.963Z,20128.00
2018-06-24T11:08:22.105Z,22112.00
2018-06-24T11:09:22.268Z,20416.00
2018-06-24T11:10:22.461Z,18656.00
2018-06-24T11:11:22.645Z,17888.00
2018-06-24T11:12:22.839Z,18304.00
2018-06-24T11:13:23.073Z,18496.00
2018-06-24T11:14:23.211Z,18080.00
2018-06-24T11:15:23.397Z,17056.00
2018-06-24T11:16:23.606Z,15872.00
2018-06-24T11:17:23.806Z,14964.00
2018-06-24T11:18:23.924Z,14700.00
2018-06-24T11:19:24.156Z,14256.00
2018-06-24T11:20:24.379Z,12892.00
2018-06-24T11:21:24.490Z,12320.00
2018-06-24T11:22:24.654Z,11868.00
2018-06-24T11:23:24.843Z,11364.00
2018-06-24T11:24:24.954Z,10680.00
2018-06-24T11:25:25.183Z,10200.00
2018-06-24T11:26:25.313Z,9372.00
2018-06-24T11:27:25.467Z,8668.00
2018-06-24T11:28:25.677Z,8484.00
2018-06-24T11:29:25.797Z,8524.00
2018-06-24T11:30:25.965Z,8680.00
2018-06-24T11:31:26.198Z,8860.00
2018-06-24T11:32:26.320Z,9216.00
2018-06-24T11:33:26.482Z,9952.00
2018-06-24T11:34:26.670Z,11068.00
2018-06-24T11:35:26.853Z,12360.00
2018-06-24T11:36:27.011Z,13644.00
2018-06-24T11:37:27.180Z,14620.00
2018-06-24T11:38:27.312Z,15424.00
2018-06-24T11:39:27.477Z,15936.00
2018-06-24T11:40:27.698Z,16288.00
2018-06-24T11:41:27.885Z,16416.00
2018-06-24T11:42:28.094Z,16608.00
2018-06-24T11:43:28.245Z,16768.00
2018-06-24T11:44:28.482Z,16608.00
2018-06-24T11:45:28.750Z,16448.00
2018-06-24T11:46:33.960Z,16416.00
2018-06-24T11:47:28.890Z,16448.00
2018-06-24T11:48:29.064Z,16288.00
2018-06-24T11:49:29.506Z,16224.00
2018-06-24T11:50:29.660Z,16256.00
2018-06-24T11:51:29.671Z,16448.00
2018-06-24T11:52:29.875Z,16672.00
2018-06-24T11:53:30.091Z,16608.00
2018-06-24T11:54:30.204Z,16832.00
2018-06-24T11:55:30.442Z,17408.00
2018-06-24T11:56:30.698Z,18688.00
2018-06-24T11:57:30.795Z,19552.00
2018-06-24T11:58:30.874Z,20224.00
2018-06-24T11:59:31.095Z,20640.00
2018-06-24T12:00:31.379Z,20448.00
2018-06-24T12:01:31.439Z,20256.00
2018-06-24T12:02:31.813Z,20480.00
2018-06-24T12:03:31.864Z,21056.00
2018-06-24T12:04:32.066Z,22112.00
2018-06-24T12:05:32.373Z,22432.00
2018-06-24T12:06:32.452Z,22944.00
2018-06-24T12:07:32.634Z,22432.00
2018-06-24T12:08:32.868Z,21504.00
2018-06-24T12:09:33.164Z,21536.00
2018-06-24T12:10:33.201Z,20928.00
2018-06-24T12:11:33.514Z,20128.00
2018-06-24T12:12:33.834Z,19072.00
2018-06-24T12:13:33.868Z,18336.00
2018-06-24T12:14:33.915Z,17856.00
2018-06-24T12:15:34.084Z,17312.00
2018-06-24T12:16:34.362Z,16832.00
2018-06-24T12:17:34.465Z,16416.00
2018-06-24T12:18:34.681Z,16704.00
2018-06-24T12:19:34.836Z,17312.00
2018-06-24T12:20:35.220Z,18144.00
2018-06-24T12:21:35.165Z,18624.00
2018-06-24T12:22:46.791Z,19008.00
2018-06-24T12:23:38.466Z,18944.00
2018-06-24T12:24:40.335Z,19872.00
2018-06-24T12:25:38.170Z,21088.00
2018-06-24T12:28:40.456Z,28256.00
2018-06-24T12:29:38.896Z,34048.00
2018-06-24T12:30:39.824Z,47936.00
2018-06-24T12:31:40.363Z,32416.00
2018-06-24T12:32:41.424Z,27456.00
2018-06-24T12:33:41.620Z,28064.00
2018-06-24T12:34:40.566Z,27616.00
2018-06-24T12:35:40.325Z,25856.00
2018-06-24T12:36:41.667Z,22112.00
2018-06-24T12:37:39.256Z,20000.00
2018-06-24T12:39:41.335Z,18592.00
2018-06-24T12:40:42.094Z,23360.00
2018-06-24T12:41:42.978Z,19424.00
2018-06-24T12:42:39.495Z,39392.00
2018-06-24T12:43:39.219Z,33664.00
2018-06-24T12:44:39.404Z,36224.00
2018-06-24T12:45:39.861Z,40352.00
2018-06-24T12:46:39.707Z,36160.00
2018-06-24T12:47:40.443Z,34848.00
2018-06-24T12:48:40.221Z,28448.00
2018-06-24T12:49:40.403Z,28544.00
2018-06-24T12:50:40.574Z,24128.00
2018-06-24T12:51:40.724Z,22592.00
2018-06-24T12:52:40.716Z,22784.00
2018-06-24T12:53:40.863Z,25920.00
2018-06-24T12:54:40.925Z,30048.00
2018-06-24T12:55:41.199Z,31648.00
2018-06-24T12:56:41.371Z,31136.00
2018-06-24T12:57:41.687Z,31328.00
2018-06-24T12:58:41.765Z,34464.00
2018-06-24T12:59:42.302Z,34880.00
2018-06-24T13:00:42.562Z,32672.00
2018-06-24T13:01:42.224Z,36832.00
2018-06-24T13:02:42.561Z,32512.00
2018-06-24T13:03:42.649Z,31072.00
2018-06-24T13:04:42.800Z,30048.00
2018-06-24T13:05:42.981Z,31232.00
2018-06-24T13:06:43.162Z,38272.00
2018-06-24T13:07:43.290Z,37952.00
2018-06-24T13:08:43.556Z,36064.00
2018-06-24T13:09:43.676Z,32896.00
2018-06-24T13:10:43.841Z,34912.00
2018-06-24T13:11:43.996Z,41056.00
2018-06-24T13:12:44.169Z,49248.00
2018-06-24T13:13:44.404Z,44928.00
2018-06-24T13:14:44.569Z,44640.00
2018-06-24T13:15:44.702Z,27552.00
2018-06-24T13:16:44.890Z,34112.00
2018-06-24T13:17:45.108Z,33440.00
2018-06-24T13:18:45.304Z,34400.00
2018-06-24T13:19:45.423Z,35040.00
2018-06-24T13:20:45.635Z,35360.00
2018-06-24T13:21:45.819Z,38368.00
2018-06-24T13:22:46.056Z,39904.00
2018-06-24T13:23:46.188Z,38176.00
2018-06-24T13:24:46.308Z,37440.00
2018-06-24T13:25:46.514Z,28608.00
2018-06-24T13:26:46.735Z,27328.00
2018-06-24T13:27:46.856Z,25184.00
2018-06-24T13:28:47.099Z,23744.00
2018-06-24T13:29:47.173Z,25568.00
2018-06-24T13:30:47.397Z,25408.00
2018-06-24T13:31:47.534Z,27008.00
2018-06-24T13:32:47.712Z,26208.00
2018-06-24T13:33:47.892Z,25184.00
2018-06-24T13:34:48.089Z,26560.00
2018-06-24T13:35:48.207Z,34016.00
2018-06-24T13:36:48.440Z,29056.00
2018-06-24T13:37:48.604Z,28352.00
2018-06-24T13:38:48.764Z,28736.00
2018-06-24T13:39:48.966Z,26784.00
2018-06-24T13:40:49.089Z,20224.00
2018-06-24T13:41:49.271Z,19136.00
2018-06-24T13:42:49.447Z,18560.00
2018-06-24T13:43:49.666Z,15712.00
2018-06-24T13:44:49.882Z,15128.00
2018-06-24T13:45:50.056Z,15124.00
2018-06-24T13:46:50.236Z,16128.00
2018-06-24T13:47:50.401Z,16064.00
2018-06-24T13:48:50.533Z,15048.00
2018-06-24T13:49:50.754Z,15096.00
2018-06-24T13:50:50.920Z,15360.00
2018-06-24T13:51:51.031Z,13768.00
2018-06-24T13:52:51.265Z,13820.00
2018-06-24T13:53:51.416Z,14044.00
2018-06-24T13:54:51.640Z,13980.00
2018-06-24T13:55:51.771Z,14396.00
2018-06-24T13:56:51.946Z,14812.00
2018-06-24T13:57:52.143Z,14816.00
2018-06-24T13:58:52.278Z,14160.00
2018-06-24T13:59:52.468Z,12860.00
2018-06-24T14:00:52.728Z,11192.00
2018-06-24T14:01:52.819Z,10388.00
2018-06-24T14:02:53.005Z,10164.00
2018-06-24T14:03:53.248Z,10576.00
2018-06-24T14:04:53.394Z,11028.00
2018-06-24T14:05:53.551Z,11480.00
2018-06-24T14:06:53.720Z,11908.00
2018-06-24T14:07:53.922Z,11908.00
2018-06-24T14:08:54.123Z,11992.00
2018-06-24T14:09:54.239Z,12324.00
2018-06-24T14:10:54.514Z,12360.00
2018-06-24T14:11:54.690Z,11932.00
2018-06-24T14:12:54.882Z,11160.00
2018-06-24T14:13:54.979Z,10444.00
2018-06-24T14:14:55.125Z,9976.00
2018-06-24T14:15:55.269Z,9676.00
2018-06-24T14:16:55.528Z,9704.00
2018-06-24T14:17:55.673Z,9836.00
2018-06-24T14:18:55.836Z,10084.00
2018-06-24T14:19:56.054Z,10472.00
2018-06-24T14:20:56.170Z,10768.00
2018-06-24T14:21:56.380Z,11072.00
2018-06-24T14:22:56.505Z,11212.00
2018-06-24T14:23:56.660Z,11176.00
2018-06-24T14:24:56.835Z,10932.00
2018-06-24T14:25:57.146Z,10352.00
2018-06-24T14:26:57.268Z,9776.00
2018-06-24T14:27:57.453Z,9652.00
2018-06-24T14:28:57.673Z,9784.00
2018-06-24T14:29:57.870Z,9748.00
2018-06-24T14:30:58.027Z,9688.00
2018-06-24T14:31:58.233Z,9736.00
2018-06-24T14:32:58.354Z,10096.00
2018-06-24T14:33:58.593Z,10644.00
2018-06-24T14:34:58.836Z,10704.00
2018-06-24T14:35:58.868Z,10416.00
2018-06-24T14:36:59.097Z,9696.00
2018-06-24T14:37:59.266Z,8848.00
2018-06-24T14:38:59.390Z,8216.00
2018-06-24T14:39:59.680Z,7988.00
2018-06-24T14:40:59.784Z,8196.00
2018-06-24T14:41:59.954Z,8468.00
2018-06-24T14:43:00.078Z,8564.00
2018-06-24T14:44:00.345Z,8500.00
2018-06-24T14:45:00.485Z,8476.00
2018-06-24T14:46:00.683Z,8676.00
2018-06-24T14:47:00.862Z,8824.00
2018-06-24T14:48:01.010Z,9076.00
2018-06-24T14:49:01.165Z,9284.00
2018-06-24T14:50:01.376Z,9316.00
2018-06-24T14:51:01.477Z,9476.00
2018-06-24T14:52:01.659Z,9608.00
2018-06-24T14:53:01.868Z,9548.00
2018-06-24T14:54:01.982Z,9568.00
2018-06-24T14:55:02.192Z,9724.00
2018-06-24T14:56:02.293Z,9612.00
2018-06-24T14:57:02.470Z,9624.00
2018-06-24T14:58:02.792Z,9972.00
2018-06-24T14:59:02.844Z,10392.00
2018-06-24T15:00:03.039Z,10964.00